x

West Tampa - 112 Nm Wnw Of Tampa, Fl (42036) Wave Buoy

10:50am - Sat 1st Oct 2016 All times are EDT. -4 hours from GMT.

  • Sig Wave height 0.7ft
  • Average Period 3s
  • Wind
    9mph, 11mph gusts
  • Sea Temp 84°f
  • Air Temp 80°f
  • Sea Pressure 1017.9mb
  • West Tampa  - 112 Nm Wnw Of Tampa, Fl
  • West Tampa  - 112 Nm Wnw Of Tampa, Fl

More Historic Weather Station data

Upgrade to MSW Pro to gain access to the past 30 days of data for over 8000 Wavebouys and Weather Stations around the globe.

Join Pro

Comparision Forecast

View Surf forecast
   
Sat 10/01 10:50am 0.7ft  -  3s 9 11 mph 1017.9mb 84f 80f
9:50am 0.7ft  -  3s 9 11 mph 1017.6mb 84f 80f
8:50am 1ft 9s 3s 9 11 mph 1017.5mb 84f 80f
7:50am 1ft 3s 3s 9 11 mph 1017.1mb 84f 79f
6:50am 1ft 3s 3s 9 11 mph 1016.6mb 84f 79f
5:50am 1ft 3s 3s 9 11 mph 1016.2mb 84f 79f
4:50am 1.3ft 4s 3s 9 11 mph 1016.1mb 84f 78f
3:50am 1.3ft 4s 3s 9 11 mph 1016.2mb 84f 79f
2:50am 1.6ft 4s 4s 7 11 mph 1016.7mb 84f 79f
1:50am 1.6ft 4s 4s 7 11 mph 1017.1mb 84f 79f
12:50am 1.6ft 4s 3s 7 11 mph 1017.6mb 84f 79f
Fri 09/30 11:50pm 1.6ft 5s 4s 9 11 mph 1017.6mb 84f 79f
10:50pm 1.6ft 4s 4s 9 13 mph 1017.2mb 84f 80f
9:50pm 1.3ft 5s 4s 9 11 mph 1016.7mb 84f 80f
8:50pm 1.6ft 5s 3s 9 13 mph 1016.2mb 84f 80f
7:50pm 1.6ft 5s 4s 9 13 mph 1015.6mb 85f 80f
6:50pm 1.3ft 6s 4s 11 16 mph 1015.5mb 85f 81f
5:50pm 1.6ft 6s 4s 11 13 mph 1015.4mb 85f 81f
4:50pm 1.6ft 4s 4s 9 11 mph 1015.6mb 85f 81f
3:50pm 2ft 5s 4s 7 11 mph 1016mb 85f 81f
2:50pm 2ft 4s 4s 9 11 mph 1016.5mb 85f 81f
1:50pm 2.5ft 4s 4s 9 11 mph 1017.1mb 85f 81f
12:50pm 2.5ft 5s 4s 7 11 mph 1017.6mb 84f 81f
11:50am 2.5ft 5s 4s 9 11 mph 1017.5mb 84f 81f
10:50am 2.5ft 5s 4s 7 9 mph 1017.5mb 84f 81f
9:50am 2.5ft 5s 4s 9 13 mph 1016.9mb 84f 81f
8:50am 2.5ft 4s 4s 11 13 mph 1016.3mb 84f 81f
7:50am 1.6ft 4s 3s 11 13 mph 1016mb 84f 81f
6:50am 1.6ft 4s 4s 13 16 mph 1015.4mb 84f 81f
5:50am 1.6ft 4s 4s 9 13 mph 1015.1mb 84f 82f
4:50am 1.6ft 5s 4s 9 11 mph 1015.1mb 84f 82f
3:50am 1.6ft 4s 4s 9 11 mph 1015.3mb 84f 82f
2:50am 1.6ft 4s 4s 9 13 mph 1015.7mb 85f 82f
1:50am 1.6ft 5s 4s 9 13 mph 1016mb 85f 83f
12:50am 1.6ft 4s 4s 9
mph
1016.6mb 85f 83f
Thu 09/29 11:50pm 1.6ft 5s 4s 4
mph
1017.1mb 85f 83f
10:50pm 1.6ft 5s 4s 2 4 mph 1017.1mb 85f 83f
9:50pm 1.6ft 5s 4s 4 7 mph 1016.8mb 85f 83f
8:50pm 1.3ft 5s 4s 4 7 mph 1016.3mb 85f 83f
7:50pm 1.6ft 5s 4s 4 7 mph 1015.8mb 85f 83f
6:50pm 1.6ft 5s 4s 4 7 mph 1015.5mb 85f 84f
5:50pm 1.6ft 4s 4s 4 7 mph 1015.2mb 85f 85f
4:50pm 2ft 4s 4s 9 13 mph 1015.1mb 85f 84f
3:50pm 2ft 5s 4s 11 13 mph 1015.4mb 85f 85f
2:50pm 2ft 5s 4s 13 16 mph 1015.7mb 85f 85f
1:50pm 2ft 4s 4s 9 11 mph 1016.3mb 85f 84f
12:50pm 1.6ft 4s 4s 11 13 mph 1016.4mb 85f 83f
11:50am 2ft 4s 3s 11 13 mph 1017.1mb 85f 84f
10:50am 1.6ft 4s 4s 16 31 mph 1017mb 84f 78f
9:50am 2ft 4s 4s 11 13 mph 1016.5mb 84f 83f
8:50am 1.6ft 4s 4s 13 18 mph 1015.9mb 84f 82f
7:50am 1.6ft 4s 3s 9 11 mph 1015.7mb 84f 83f
6:50am 2ft 5s 3s 13 16 mph 1015.3mb 84f 82f
5:50am 1.6ft 5s 4s 13 18 mph 1014.7mb 85f 83f
4:50am 2ft 4s 4s 9 11 mph 1014.6mb 85f 83f
3:50am 1.6ft 5s 4s 13 16 mph 1014.7mb 85f 83f
2:50am 1.6ft 4s 3s 13 16 mph 1015.4mb 85f 83f
1:50am 1.6ft 5s 3s 13 16 mph 1015.4mb 85f 83f
12:50am 1.3ft 4s 4s 9 13 mph 1016mb 85f 84f
Wed 09/28 11:50pm 1.3ft 4s 3s 9 11 mph 1016mb 85f 84f
10:50pm 1.6ft 4s 4s 11
mph
1015.8mb 84f 83f
9:50pm 1.6ft 4s 4s 2 4 mph 1015.9mb 84f 78f
8:50pm 1.6ft 4s 4s 4 7 mph 1015.9mb 84f 78f
7:50pm 1.6ft 4s 3s 7 9 mph 1015.5mb 85f 83f
6:50pm 1.6ft 4s 4s 11 13 mph 1014.9mb 85f 83f
5:50pm 2ft 4s 4s 11 13 mph 1014.6mb 85f 83f
4:50pm 2.5ft 4s 4s 13 16 mph 1014.5mb 85f 82f
3:50pm 2.5ft 4s 4s 16 20 mph 1014.8mb 85f 80f
2:50pm 1.3ft 4s 3s 22 25 mph 1015mb 85f 82f
1:50pm 1ft 3s 3s 11 13 mph 1015.4mb 86f 84f
12:50pm 1.3ft 3s 3s 9 13 mph 1015.9mb 85f 84f
11:50am 1ft 3s 3s 11
mph
1016mb 85f 83f
10:50am 1ft 3s 3s 9 11 mph 1015.8mb 85f 84f
9:50am 1ft 3s 3s 9 11 mph 1015.4mb 85f 84f
8:50am 1ft 4s 3s 9 11 mph 1014.9mb 85f 84f
7:50am 1ft 3s 3s 9 11 mph 1014.5mb 85f 84f
6:50am 1ft 4s 3s 9 11 mph 1014.1mb 85f 83f
5:50am 1ft 4s 3s 9 11 mph 1013.7mb 85f 83f
4:50am 0.7ft  -  3s 11 13 mph 1013.5mb 85f 83f
3:50am 0.7ft  -  3s 9 13 mph 1013.5mb 85f 84f
2:50am 0.7ft  -  4s 9 11 mph 1013.8mb 85f 84f
1:50am 0.7ft  -  4s 11 13 mph 1013.9mb 85f 83f
12:50am 0.7ft  -  4s 7 9 mph 1014.1mb 85f 84f
Tue 09/27 11:50pm 1ft 5s 4s 2 4 mph 1014.5mb 85f 83f
10:50pm 1ft 5s 4s 2 4 mph 1014.6mb 85f 83f
9:50pm 1ft 5s 4s 4 7 mph 1014.2mb 85f 83f
8:50pm 1ft 5s 4s 4 7 mph 1013.5mb 85f 83f
7:50pm 1ft 5s 4s 4 7 mph 1012.9mb 85f 83f
6:50pm 1ft 5s 4s 2 4 mph 1012.7mb 86f 84f
5:50pm 1.3ft 4s 4s 4 7 mph 1012.5mb 86f 84f
4:50pm 1.3ft 5s 4s 2 4 mph 1012.6mb 86f 84f